Time;durP1;ratioP1;P1;durP2;ratioP2;P2;SDS_P1;SDS_P2;PMS_P1;PMS_P2;Temp;Humidity;BMP_temperature;BMP_pressure;BME280_temperature;BME280_humidity;BME280_pressure;Samples;Min_cycle;Max_cycle;Signal;HPM_P1;HPM_P2
2021/07/12 00:02:58;;;;;;;4.63;3.53;;;14.90;99.90;;;;;;6220978;28;20842;-75
2021/07/12 00:06:02;;;;;;;6.30;2.80;;;14.90;99.90;;;;;;6220392;28;20085;-75
2021/07/12 00:09:04;;;;;;;5.78;3.08;;;14.90;99.90;;;;;;6222545;28;20153;-75
2021/07/12 00:12:06;;;;;;;3.60;3.30;;;14.80;99.90;;;;;;6211577;28;20135;-75
2021/07/12 00:15:11;;;;;;;6.45;3.53;;;14.80;99.90;;;;;;6221177;28;20179;-75
2021/07/12 00:18:13;;;;;;;4.07;3.47;;;14.80;99.90;;;;;;6220800;28;20084;-75
2021/07/12 00:21:16;;;;;;;5.05;2.92;;;14.80;99.90;;;;;;6221718;28;20105;-75
2021/07/12 00:24:20;;;;;;;5.15;3.28;;;14.80;99.90;;;;;;6221102;28;20621;-75
2021/07/12 00:27:21;;;;;;;3.60;2.75;;;14.80;99.90;;;;;;6220799;28;20579;-75
2021/07/12 00:30:24;;;;;;;5.55;2.67;;;14.80;99.90;;;;;;6225788;28;20050;-75
2021/07/12 00:33:26;;;;;;;2.78;2.58;;;14.80;99.90;;;;;;6226185;28;20050;-75
2021/07/12 00:36:30;;;;;;;3.70;3.08;;;14.70;99.90;;;;;;6221330;28;20566;-75
2021/07/12 00:39:31;;;;;;;4.38;3.33;;;14.80;99.90;;;;;;6225315;28;20112;-75
2021/07/12 00:42:33;;;;;;;4.88;3.65;;;14.70;99.90;;;;;;6225225;28;20041;-75
2021/07/12 00:45:37;;;;;;;3.60;3.03;;;14.70;99.90;;;;;;6226096;28;20146;-76
2021/07/12 00:48:39;;;;;;;4.10;3.80;;;14.70;99.90;;;;;;6225202;28;20056;-75
2021/07/12 00:51:42;;;;;;;4.22;3.30;;;14.60;99.90;;;;;;6225133;28;20112;-75
2021/07/12 00:54:44;;;;;;;4.15;3.67;;;14.60;99.90;;;;;;6224827;28;20168;-75
2021/07/12 00:57:46;;;;;;;4.20;2.67;;;14.50;99.90;;;;;;6225167;28;20050;-75
2021/07/12 01:00:55;;;;;;;6.50;3.78;;;14.60;99.90;;;;;;6224377;28;20560;-75
2021/07/12 01:03:57;;;;;;;5.70;4.38;;;14.50;99.90;;;;;;6224870;28;20464;-75
2021/07/12 01:07:01;;;;;;;3.85;2.97;;;14.50;99.90;;;;;;6225484;28;20073;-74
2021/07/12 01:10:04;;;;;;;7.65;4.35;;;14.50;99.90;;;;;;6239411;28;20135;-74
2021/07/12 01:13:29;;;;;;;8.27;3.13;;;14.50;99.90;;;;;;6232383;28;20185;-75
2021/07/12 01:16:55;;;;;;;4.53;3.17;;;14.50;99.90;;;;;;6224531;28;20121;-75
2021/07/12 01:20:23;;;;;;;3.40;3.10;;;14.50;99.90;;;;;;6224439;28;20081;-75
2021/07/12 01:23:36;;;;;;;9.57;3.58;;;14.40;99.90;;;;;;6224528;28;20096;-75
2021/07/12 01:27:06;;;;;;;3.88;3.58;;;14.40;99.90;;;;;;6224725;28;20050;-75
2021/07/12 01:30:15;;;;;;;3.67;3.08;;;14.40;99.90;;;;;;6224248;28;20143;-75
2021/07/12 01:33:22;;;;;;;3.42;3.13;;;14.30;99.90;;;;;;6224824;28;20136;-75
2021/07/12 01:36:30;;;;;;;5.68;3.85;;;14.30;99.90;;;;;;6217712;28;20205;-75
2021/07/12 01:39:37;;;;;;;5.88;3.35;;;14.30;99.90;;;;;;6222753;28;20498;-75
2021/07/12 01:42:47;;;;;;;4.93;3.13;;;14.30;99.90;;;;;;6224045;28;20112;-75
2021/07/12 01:45:57;;;;;;;5.35;3.33;;;14.20;99.90;;;;;;6224139;28;20135;-75
2021/07/12 01:49:05;;;;;;;7.05;3.15;;;14.20;99.90;;;;;;6223947;28;20181;-75
2021/07/12 01:52:12;;;;;;;14.07;3.30;;;14.30;99.90;;;;;;6223763;28;20050;-75
2021/07/12 01:55:20;;;;;;;9.83;4.07;;;14.20;99.90;;;;;;6223599;28;20522;-75
2021/07/12 01:58:28;;;;;;;3.33;3.10;;;14.20;99.90;;;;;;6223798;28;20385;-75
2021/07/12 02:01:32;;;;;;;4.32;3.92;;;14.20;99.90;;;;;;6223936;28;20053;-76
2021/07/12 02:04:37;;;;;;;5.18;3.60;;;14.10;99.90;;;;;;6228555;28;20046;-76
2021/07/12 02:07:40;;;;;;;3.75;3.45;;;14.10;99.90;;;;;;6247735;28;20060;-76
2021/07/12 02:10:44;;;;;;;5.78;3.75;;;14.10;99.90;;;;;;6248029;28;20103;-76
2021/07/12 02:13:48;;;;;;;6.68;3.00;;;14.10;99.90;;;;;;6248634;28;20180;-76
2021/07/12 02:16:52;;;;;;;4.47;3.47;;;14.10;99.90;;;;;;6247315;28;20127;-78
2021/07/12 02:19:59;;;;;;;5.22;3.83;;;14.00;99.90;;;;;;6247885;28;20092;-76
2021/07/12 02:23:02;;;;;;;6.55;3.92;;;13.90;99.90;;;;;;6247208;28;20517;-76
2021/07/12 02:26:04;;;;;;;7.20;2.75;;;13.80;99.90;;;;;;6247616;28;20055;-76
2021/07/12 02:29:08;;;;;;;3.08;2.78;;;13.80;99.90;;;;;;6247813;28;20077;-76
2021/07/12 02:32:11;;;;;;;5.57;3.55;;;13.90;99.90;;;;;;6247365;28;20051;-76
2021/07/12 02:35:15;;;;;;;4.35;2.75;;;13.90;99.90;;;;;;6247412;28;20515;-76
2021/07/12 02:38:17;;;;;;;4.47;3.63;;;13.90;99.90;;;;;;6219560;28;20125;-76
2021/07/12 02:41:21;;;;;;;7.63;2.75;;;13.90;99.90;;;;;;6198936;28;20104;-76
2021/07/12 02:44:24;;;;;;;8.38;4.30;;;13.90;99.90;;;;;;6198258;28;20125;-76
2021/07/12 02:47:26;;;;;;;10.15;3.95;;;13.90;99.90;;;;;;6198036;28;20116;-75
2021/07/12 02:50:29;;;;;;;4.97;3.88;;;13.80;99.90;;;;;;6198105;28;20508;-76
2021/07/12 02:53:34;;;;;;;6.57;3.63;;;13.80;99.90;;;;;;6198551;28;20052;-76
2021/07/12 02:56:36;;;;;;;4.55;3.42;;;13.80;99.90;;;;;;6197943;28;20133;-75
2021/07/12 02:59:38;;;;;;;6.70;3.28;;;13.80;99.90;;;;;;6197831;28;20070;-76
2021/07/12 03:02:41;;;;;;;3.22;2.92;;;13.70;99.90;;;;;;6197944;28;20038;-76
2021/07/12 03:05:44;;;;;;;12.32;3.55;;;13.70;99.90;;;;;;6197903;28;20092;-75
2021/07/12 03:08:54;;;;;;;3.38;3.08;;;13.70;99.90;;;;;;6197738;28;20129;-76
2021/07/12 03:12:03;;;;;;;7.45;2.72;;;13.60;99.90;;;;;;6197861;28;20042;-76
2021/07/12 03:15:08;;;;;;;8.90;4.50;;;13.60;99.90;;;;;;6197669;28;20173;-76
2021/07/12 03:18:17;;;;;;;9.35;3.25;;;13.70;99.90;;;;;;6197439;28;20511;-77
2021/07/12 03:21:23;;;;;;;4.38;2.58;;;14.00;99.90;;;;;;6198158;28;20050;-75
2021/07/12 03:24:27;;;;;;;4.05;2.53;;;14.40;99.90;;;;;;6197463;28;20416;-77
2021/07/12 03:27:30;;;;;;;2.42;2.22;;;14.60;99.90;;;;;;6197390;28;20197;-76
2021/07/12 03:30:33;;;;;;;9.32;2.50;;;14.70;99.90;;;;;;6197486;28;20126;-75
2021/07/12 03:33:38;;;;;;;3.80;2.50;;;14.70;99.90;;;;;;6197489;28;20589;-75
2021/07/12 03:36:44;;;;;;;2.30;2.08;;;14.90;99.90;;;;;;6196917;28;20046;-75
2021/07/12 03:39:46;;;;;;;4.20;2.53;;;15.10;99.90;;;;;;6198947;28;20193;-75
2021/07/12 03:42:48;;;;;;;2.78;2.00;;;15.10;99.90;;;;;;6197475;28;20121;-75
2021/07/12 03:45:55;;;;;;;5.25;2.95;;;15.00;99.90;;;;;;6197591;28;20425;-75
2021/07/12 03:48:57;;;;;;;4.82;2.58;;;14.90;99.90;;;;;;6197059;28;20076;-75
2021/07/12 03:52:01;;;;;;;10.82;3.60;;;14.80;99.90;;;;;;6197169;28;20409;-75
2021/07/12 03:55:04;;;;;;;7.15;2.70;;;14.70;99.90;;;;;;6196968;28;20534;-75
2021/07/12 03:58:06;;;;;;;7.45;2.70;;;14.80;99.90;;;;;;6196748;28;20081;-75
2021/07/12 04:01:07;;;;;;;2.42;2.13;;;14.80;99.90;;;;;;6197612;28;20522;-75
2021/07/12 04:04:09;;;;;;;2.95;2.35;;;15.00;99.90;;;;;;6199600;28;20288;-75
2021/07/12 04:07:13;;;;;;;6.45;2.50;;;15.00;99.90;;;;;;6201580;28;20046;-75
2021/07/12 04:10:16;;;;;;;5.18;2.47;;;15.10;99.90;;;;;;6202268;28;20136;-75
2021/07/12 04:13:18;;;;;;;2.00;1.63;;;15.20;99.90;;;;;;6202402;28;20389;-75
2021/07/12 04:16:19;;;;;;;4.45;2.35;;;15.30;99.90;;;;;;6201515;28;20120;-75
2021/07/12 04:19:21;;;;;;;3.13;2.28;;;15.40;99.90;;;;;;6201547;28;20120;-75
2021/07/12 04:22:25;;;;;;;3.08;2.35;;;15.60;99.90;;;;;;6201601;28;20116;-75
2021/07/12 04:25:27;;;;;;;2.85;1.83;;;15.70;99.90;;;;;;6201888;28;20135;-75
2021/07/12 04:28:29;;;;;;;3.00;2.20;;;15.90;99.90;;;;;;6201389;28;20061;-75
2021/07/12 04:31:31;;;;;;;4.05;2.47;;;16.00;99.90;;;;;;6201082;28;20189;-74
2021/07/12 04:34:32;;;;;;;6.22;2.38;;;16.20;99.90;;;;;;6201731;28;20046;-76
2021/07/12 04:37:36;;;;;;;4.38;2.83;;;16.40;99.90;;;;;;6201322;28;20698;-75
2021/07/12 04:40:37;;;;;;;6.72;2.22;;;16.60;99.90;;;;;;6225214;28;20072;-75
2021/07/12 04:43:39;;;;;;;6.40;2.78;;;16.70;99.90;;;;;;6228222;28;20050;-75
2021/07/12 04:46:41;;;;;;;9.05;3.08;;;17.00;99.90;;;;;;6225357;28;20125;-75
2021/07/12 04:49:43;;;;;;;16.52;3.40;;;17.20;99.90;;;;;;6225780;28;20531;-75
2021/07/12 04:52:46;;;;;;;2.90;2.45;;;17.40;99.90;;;;;;6225409;28;20053;-75
2021/07/12 04:55:48;;;;;;;3.80;2.05;;;17.50;99.90;;;;;;6225102;28;20048;-75
2021/07/12 04:58:51;;;;;;;3.83;2.47;;;17.60;99.90;;;;;;6225124;28;20176;-75
2021/07/12 05:01:53;;;;;;;3.55;1.85;;;17.50;99.90;;;;;;6225257;28;20141;-76
2021/07/12 05:04:55;;;;;;;2.35;2.15;;;17.40;99.90;;;;;;6224888;28;20441;-75
2021/07/12 05:07:58;;;;;;;4.53;2.78;;;17.30;99.90;;;;;;6224743;28;20176;-75
2021/07/12 05:11:00;;;;;;;6.93;2.97;;;17.10;99.90;;;;;;6221542;28;20517;-75
2021/07/12 05:14:02;;;;;;;3.00;2.70;;;17.00;99.90;;;;;;6234212;28;20113;-75
2021/07/12 05:17:05;;;;;;;4.28;2.17;;;17.00;99.90;;;;;;6224244;28;20081;-75
2021/07/12 05:20:08;;;;;;;4.72;2.67;;;17.10;99.90;;;;;;6224850;28;20132;-75
2021/07/12 05:23:11;;;;;;;3.03;2.22;;;17.40;99.90;;;;;;6224311;28;20166;-75
2021/07/12 05:26:13;;;;;;;2.05;1.95;;;17.90;99.90;;;;;;6224202;28;20081;-76
2021/07/12 05:29:15;;;;;;;4.30;2.75;;;18.30;99.90;;;;;;6224696;28;20099;-76
2021/07/12 05:32:17;;;;;;;3.63;1.90;;;18.60;99.90;;;;;;6223858;28;20049;-76
2021/07/12 05:35:19;;;;;;;3.13;1.30;;;18.70;99.90;;;;;;6224494;28;20128;-75
2021/07/12 05:38:22;;;;;;;4.40;1.90;;;18.90;99.90;;;;;;6223841;28;20034;-75
2021/07/12 05:41:24;;;;;;;2.95;1.35;;;19.10;99.90;;;;;;6208077;28;20050;-75
2021/07/12 05:44:26;;;;;;;1.88;1.67;;;19.30;99.90;;;;;;6199616;28;20077;-75
2021/07/12 05:47:28;;;;;;;4.35;1.88;;;19.40;99.00;;;;;;6199028;28;20153;-75
2021/07/12 05:50:30;;;;;;;2.58;1.50;;;19.50;98.30;;;;;;6199119;28;20560;-75
2021/07/12 05:53:34;;;;;;;1.52;1.20;;;19.60;97.40;;;;;;6200082;28;20081;-76
2021/07/12 05:56:35;;;;;;;3.55;1.55;;;19.80;97.50;;;;;;6199062;28;20161;-75
2021/07/12 05:59:37;;;;;;;3.70;1.45;;;20.20;96.60;;;;;;6199412;28;20100;-75
2021/07/12 06:02:39;;;;;;;1.98;1.35;;;20.60;95.70;;;;;;6198825;28;20046;-75
2021/07/12 06:05:41;;;;;;;3.38;1.15;;;21.20;94.00;;;;;;6211600;28;20129;-76
2021/07/12 06:08:44;;;;;;;2.08;1.52;;;22.00;91.70;;;;;;6220052;28;20125;-76
2021/07/12 06:11:46;;;;;;;4.25;1.60;;;23.10;87.70;;;;;;6198700;28;20532;-75
2021/07/12 06:14:48;;;;;;;3.00;1.33;;;23.70;83.90;;;;;;6199067;28;20109;-76
2021/07/12 06:17:51;;;;;;;2.45;1.55;;;24.00;80.60;;;;;;6199810;28;20054;-75
2021/07/12 06:20:53;;;;;;;3.25;1.85;;;24.00;79.90;;;;;;6198729;28;20516;-76
2021/07/12 06:23:56;;;;;;;2.88;2.03;;;24.10;78.30;;;;;;6198829;28;20094;-76
2021/07/12 06:26:58;;;;;;;2.70;1.52;;;24.00;77.10;;;;;;6198379;28;20177;-76
2021/07/12 06:30:00;;;;;;;1.83;1.70;;;24.10;76.90;;;;;;6199696;28;20058;-76
2021/07/12 06:33:02;;;;;;;5.53;1.40;;;24.20;75.10;;;;;;6200708;28;20070;-76
2021/07/12 06:36:06;;;;;;;3.15;2.28;;;24.20;74.10;;;;;;6201382;28;20110;-76
2021/07/12 06:39:09;;;;;;;1.65;1.05;;;24.20;74.20;;;;;;6208186;28;20175;-76
2021/07/12 06:42:11;;;;;;;1.75;1.38;;;24.10;73.80;;;;;;6223232;28;20160;-77
2021/07/12 06:45:15;;;;;;;1.13;1.02;;;24.10;73.60;;;;;;6225071;28;20519;-76
2021/07/12 06:48:16;;;;;;;1.67;1.20;;;24.10;73.20;;;;;;6223906;28;20474;-76
2021/07/12 06:51:19;;;;;;;3.85;2.30;;;24.30;73.00;;;;;;6222314;28;20042;-76
2021/07/12 06:54:22;;;;;;;1.52;1.42;;;24.50;72.10;;;;;;6222775;28;20096;-76
2021/07/12 06:57:24;;;;;;;2.08;1.50;;;24.60;72.00;;;;;;6222512;28;20054;-76
2021/07/12 07:00:26;;;;;;;4.40;1.85;;;24.50;71.90;;;;;;6222319;28;20050;-76
2021/07/12 07:03:28;;;;;;;3.08;1.70;;;24.60;72.60;;;;;;6221615;28;20125;-76
2021/07/12 07:06:30;;;;;;;1.45;1.20;;;24.60;71.60;;;;;;6221769;28;20084;-76
2021/07/12 07:09:33;;;;;;;3.00;1.48;;;24.40;72.20;;;;;;6222682;28;20060;-76
2021/07/12 07:12:35;;;;;;;3.25;1.60;;;24.20;71.50;;;;;;6221682;28;20042;-76
2021/07/12 07:15:37;;;;;;;2.70;2.10;;;24.20;71.60;;;;;;6218906;28;20527;-76
2021/07/12 07:18:39;;;;;;;2.80;1.77;;;24.20;71.90;;;;;;6218120;28;20128;-75
2021/07/12 07:21:41;;;;;;;2.20;1.42;;;24.10;71.00;;;;;;6222960;28;20698;-74
2021/07/12 07:24:44;;;;;;;1.77;1.42;;;23.90;72.90;;;;;;6221635;28;20125;-75
2021/07/12 07:27:46;;;;;;;2.35;1.75;;;23.60;73.20;;;;;;6220803;28;20157;-75
2021/07/12 07:30:48;;;;;;;3.45;1.52;;;23.40;75.00;;;;;;6221553;28;20057;-75
2021/07/12 07:33:50;;;;;;;2.83;1.60;;;23.40;76.50;;;;;;6222079;28;20176;-75
2021/07/12 07:36:52;;;;;;;4.18;1.55;;;23.80;76.50;;;;;;6221094;28;20136;-75
2021/07/12 07:39:55;;;;;;;2.55;1.52;;;24.10;74.40;;;;;;6220825;28;20132;-75
2021/07/12 07:42:57;;;;;;;1.92;1.50;;;24.20;75.00;;;;;;6215011;28;20034;-75
2021/07/12 07:45:59;;;;;;;10.63;2.03;;;24.70;74.10;;;;;;6221505;28;20102;-75
2021/07/12 07:49:02;;;;;;;1.63;0.93;;;25.40;72.30;;;;;;6222002;28;20053;-75
2021/07/12 07:52:05;;;;;;;1.30;1.02;;;25.70;71.10;;;;;;6221358;28;20050;-75
2021/07/12 07:55:09;;;;;;;2.30;1.27;;;26.10;69.30;;;;;;6221327;28;20129;-75
2021/07/12 07:58:11;;;;;;;5.25;1.38;;;26.20;68.80;;;;;;6221070;28;20136;-75
2021/07/12 08:01:13;;;;;;;1.10;0.98;;;26.50;67.90;;;;;;6221535;28;20096;-75
2021/07/12 08:04:15;;;;;;;1.58;1.42;;;26.70;67.00;;;;;;6230009;23;20113;-76
2021/07/12 08:07:17;;;;;;;1.42;0.95;;;26.80;66.70;;;;;;6196960;28;20081;-76
2021/07/12 08:10:21;;;;;;;1.77;1.45;;;26.70;66.00;;;;;;6197203;28;20054;-76
2021/07/12 08:13:22;;;;;;;2.45;0.93;;;26.70;65.40;;;;;;6196665;28;20096;-77
2021/07/12 08:16:24;;;;;;;1.50;1.00;;;26.40;64.90;;;;;;6197021;28;20065;-77
2021/07/12 08:19:26;;;;;;;2.42;1.48;;;26.00;66.00;;;;;;6197314;28;20046;-76
2021/07/12 08:22:28;;;;;;;1.73;1.23;;;25.90;67.40;;;;;;6197190;28;20046;-77
2021/07/12 08:25:31;;;;;;;1.27;0.98;;;25.60;67.50;;;;;;6197811;28;20430;-76
2021/07/12 08:28:33;;;;;;;1.42;1.33;;;25.30;68.00;;;;;;6196929;28;20092;-77
2021/07/12 08:31:35;;;;;;;2.65;1.65;;;25.20;67.90;;;;;;6197174;28;20054;-76
2021/07/12 08:34:41;;;;;;;2.55;1.20;;;25.30;67.90;;;;;;6197505;28;20069;-76
2021/07/12 08:37:49;;;;;;;4.50;1.10;;;25.40;68.90;;;;;;6197266;28;20141;-76
2021/07/12 08:40:55;;;;;;;1.85;1.02;;;25.70;68.20;;;;;;6197183;28;20050;-76
2021/07/12 08:43:57;;;;;;;1.20;0.98;;;26.10;66.10;;;;;;6190110;28;20042;-76
2021/07/12 08:46:59;;;;;;;1.50;1.25;;;26.30;65.40;;;;;;6196380;28;20105;-76
2021/07/12 08:50:01;;;;;;;1.30;1.08;;;26.50;64.20;;;;;;6198702;28;20050;-76
2021/07/12 08:53:03;;;;;;;1.92;1.40;;;26.80;62.70;;;;;;6201558;28;20125;-76
2021/07/12 08:56:06;;;;;;;1.27;1.15;;;27.20;61.00;;;;;;6200704;28;20042;-76
2021/07/12 08:59:27;;;;;;;9.18;1.20;;;27.60;60.30;;;;;;6200960;28;20057;-76
2021/07/12 09:02:29;;;;;;;2.00;1.33;;;28.00;59.50;;;;;;6200168;28;20053;-76
2021/07/12 09:05:31;;;;;;;;;;;28.10;59.60;;;;;;6201789;28;20042;-76
2021/07/12 09:08:47;;;;;;;;;;;28.40;59.50;;;;;;6201086;28;19923;-77
2021/07/12 09:11:50;;;;;;;;;;;28.50;59.90;;;;;;6200843;28;19928;-76
2021/07/12 09:15:01;;;;;;;;;;;28.60;59.20;;;;;;6200791;28;20052;-77
2021/07/12 09:18:15;;;;;;;;;;;28.40;57.70;;;;;;6201050;28;19925;-77
2021/07/12 09:21:16;;;;;;;;;;;28.20;55.70;;;;;;6200919;28;19922;-76
2021/07/12 09:24:23;;;;;;;;;;;27.90;55.80;;;;;;6200741;28;20067;-77
2021/07/12 09:27:27;;;;;;;;;;;27.60;56.40;;;;;;6200278;28;19921;-77
2021/07/12 09:30:33;;;;;;;;;;;27.30;56.80;;;;;;6201149;28;19922;-77
2021/07/12 09:33:48;;;;;;;;;;;27.00;57.70;;;;;;6200919;28;19925;-77
2021/07/12 09:36:50;;;;;;;;;;;27.00;57.90;;;;;;6200303;28;19926;-77
2021/07/12 09:39:52;;;;;;;;;;;27.10;58.10;;;;;;6200560;28;19953;-77
2021/07/12 09:42:55;;;;;;;;;;;27.10;57.60;;;;;;6200282;28;20394;-76
2021/07/12 09:45:56;;;;;;;;;;;27.30;58.20;;;;;;6195950;28;19925;-77
2021/07/12 09:49:08;;;;;;;;;;;27.60;57.70;;;;;;6200588;28;20410;-76
2021/07/12 09:52:10;;;;;;;;;;;27.80;56.10;;;;;;6199925;28;19991;-77
2021/07/12 09:55:15;;;;;;;;;;;28.00;56.90;;;;;;6200341;28;20040;-76
2021/07/12 09:58:18;;;;;;;;;;;28.10;55.60;;;;;;6199782;28;19922;-76
2021/07/12 10:01:24;;;;;;;;;;;28.00;57.20;;;;;;6199837;28;20001;-77
2021/07/12 10:04:25;;;;;;;;;;;28.10;57.80;;;;;;6199309;28;19944;-76
2021/07/12 10:07:27;;;;;;;;;;;27.90;56.20;;;;;;6199202;28;20555;-76
2021/07/12 10:10:29;;;;;;;;;;;27.50;57.10;;;;;;6199630;28;20383;-77
2021/07/12 10:13:32;;;;;;;;;;;27.40;58.20;;;;;;6199690;28;20056;-76
2021/07/12 10:16:34;;;;;;;;;;;27.40;58.40;;;;;;6199464;28;20441;-76
2021/07/12 10:19:35;;;;;;;;;;;27.40;57.90;;;;;;6199388;28;19921;-77
2021/07/12 10:22:40;;;;;;;;;;;27.50;58.30;;;;;;6199151;28;20391;-77
2021/07/12 10:25:46;;;;;;;;;;;27.90;58.40;;;;;;6199162;28;19921;-77
2021/07/12 10:28:49;;;;;;;;;;;28.40;58.60;;;;;;6199211;28;20367;-77
2021/07/12 10:31:55;;;;;;;;;;;29.00;55.40;;;;;;6199393;28;20008;-76
2021/07/12 10:34:57;;;;;;;;;;;29.30;55.90;;;;;;6199122;28;20013;-77
2021/07/12 10:38:00;;;;;;;2.05;1.80;;;29.50;54.10;;;;;;6198335;28;19921;-76
2021/07/12 10:41:04;;;;;;;1.23;1.13;;;29.50;54.10;;;;;;6198897;28;20057;-76
2021/07/12 10:44:07;;;;;;;1.13;1.02;;;29.50;53.10;;;;;;6198282;28;20046;-76
2021/07/12 10:47:50;;;;;;;1.48;0.90;;;29.50;52.70;;;;;;6188561;28;20085;-77
2021/07/12 10:50:56;;;;;;;2.05;1.30;;;29.40;52.50;;;;;;6198075;28;20401;-76
2021/07/12 10:54:02;;;;;;;3.13;1.30;;;29.20;53.10;;;;;;6199038;28;20128;-76
2021/07/12 10:57:04;;;;;;;1.50;1.40;;;29.10;53.10;;;;;;6197980;28;20046;-76
2021/07/12 11:00:10;;;;;;;2.20;1.10;;;29.20;51.20;;;;;;6197947;28;20531;-76
2021/07/12 11:03:37;;;;;;;1.67;1.02;;;29.40;52.70;;;;;;6197708;28;20411;-76
2021/07/12 11:06:52;;;;;;;;;;;29.60;52.10;;;;;;6198350;28;20044;-74
2021/07/12 11:09:56;;;;;;;2.10;0.90;;;29.90;51.30;;;;;;6198188;28;19983;-76
2021/07/12 11:12:59;;;;;;;1.27;1.17;;;30.20;51.00;;;;;;6195867;28;20073;-77
2021/07/12 11:16:15;;;;;;;7.07;1.73;;;30.40;50.90;;;;;;6196954;28;20184;-75
2021/07/12 11:19:24;;;;;;;1.63;1.20;;;30.70;49.90;;;;;;6197071;28;20397;-76
2021/07/12 11:22:26;;;;;;;1.42;1.08;;;31.00;49.60;;;;;;6197782;28;20058;-76
2021/07/12 11:25:41;;;;;;;1.58;1.20;;;30.90;49.40;;;;;;6198228;28;20046;-74
2021/07/12 11:28:44;;;;;;;;;;;31.10;50.10;;;;;;6198004;28;20108;-74
2021/07/12 11:31:51;;;;;;;2.30;1.13;;;31.20;49.40;;;;;;6197745;28;19921;-75
2021/07/12 11:34:55;;;;;;;1.65;1.50;;;31.30;47.60;;;;;;6197507;28;20046;-75
2021/07/12 11:37:59;;;;;;;1.98;1.45;;;31.50;48.40;;;;;;6197333;28;20050;-76
2021/07/12 11:41:06;;;;;;;2.78;1.33;;;31.50;49.10;;;;;;6197608;28;20050;-77
2021/07/12 11:44:09;;;;;;;1.95;1.35;;;31.60;48.10;;;;;;6197452;28;20054;-77
2021/07/12 11:47:16;;;;;;;1.10;1.00;;;31.50;47.30;;;;;;6188080;28;20046;-77
2021/07/12 11:50:19;;;;;;;1.77;1.50;;;31.30;48.90;;;;;;6197844;28;20140;-76
2021/07/12 11:53:21;;;;;;;2.15;1.00;;;31.10;49.70;;;;;;6192179;28;20065;-77
2021/07/12 11:56:23;;;;;;;1.15;1.05;;;31.20;47.50;;;;;;6197174;28;20081;-77
2021/07/12 11:59:26;;;;;;;1.40;1.30;;;31.20;46.40;;;;;;6196981;28;20108;-77
2021/07/12 12:02:30;;;;;;;1.63;1.52;;;31.20;47.70;;;;;;6196530;28;20413;-77
2021/07/12 12:05:33;;;;;;;1.25;1.13;;;31.50;47.80;;;;;;6192175;28;20093;-77
2021/07/12 12:08:35;;;;;;;2.67;1.50;;;31.80;46.70;;;;;;6197013;28;20120;-76
2021/07/12 12:11:37;;;;;;;1.52;1.20;;;31.70;47.10;;;;;;6196816;28;20169;-77
2021/07/12 12:14:39;;;;;;;1.25;1.15;;;31.50;46.80;;;;;;6197937;28;20073;-77
2021/07/12 12:17:46;;;;;;;13.38;3.10;;;30.90;48.70;;;;;;6203869;28;20082;-77
2021/07/12 12:20:49;;;;;;;;;;;30.90;49.10;;;;;;6198765;28;20129;-77
2021/07/12 12:23:51;;;;;;;1.20;1.10;;;30.90;48.90;;;;;;6197942;28;20049;-78
2021/07/12 12:26:53;;;;;;;2.70;1.33;;;30.80;48.40;;;;;;6201587;28;20052;-77
2021/07/12 12:29:55;;;;;;;3.65;1.50;;;30.70;49.10;;;;;;6202686;28;20054;-76
2021/07/12 12:33:00;;;;;;;2.42;1.67;;;30.30;50.50;;;;;;6201194;28;20129;-77
2021/07/12 12:36:05;;;;;;;1.50;1.15;;;30.10;50.30;;;;;;6201552;28;20520;-76
2021/07/12 12:39:10;;;;;;;2.15;1.15;;;30.00;50.60;;;;;;6202406;28;20612;-77
2021/07/12 12:42:12;;;;;;;3.60;1.35;;;30.20;51.60;;;;;;6201134;28;20153;-76
2021/07/12 12:45:24;;;;;;;3.38;1.40;;;30.40;51.10;;;;;;6201562;28;20057;-76
2021/07/12 12:48:42;;;;;;;3.13;1.30;;;30.30;49.30;;;;;;6196344;28;20046;-77
2021/07/12 12:51:52;;;;;;;1.60;1.30;;;30.10;50.30;;;;;;6200961;28;20757;-77
2021/07/12 12:54:53;;;;;;;1.83;1.60;;;30.20;50.20;;;;;;6200991;28;20050;-76
2021/07/12 12:57:55;;;;;;;1.45;1.33;;;30.40;51.00;;;;;;6200453;28;20471;-77
2021/07/12 13:00:57;;;;;;;1.40;1.30;;;30.40;49.60;;;;;;6200746;28;20043;-77
2021/07/12 13:04:15;;;;;;;1.10;1.00;;;30.40;49.70;;;;;;6200196;28;20120;-78
2021/07/12 13:07:19;;;;;;;1.50;1.40;;;30.20;50.50;;;;;;6200342;28;20459;-77
2021/07/12 13:10:23;;;;;;;4.32;1.17;;;30.10;49.80;;;;;;6200477;28;20526;-75
2021/07/12 13:13:27;;;;;;;2.75;1.73;;;30.00;51.60;;;;;;6200684;28;20057;-75
2021/07/12 13:16:29;;;;;;;1.75;1.25;;;29.90;49.60;;;;;;6200043;28;20046;-76
2021/07/12 13:19:32;;;;;;;2.47;1.10;;;29.90;50.90;;;;;;6200012;28;20535;-75
2021/07/12 13:22:36;;;;;;;1.65;1.23;;;29.70;49.70;;;;;;6200018;28;20050;-76
2021/07/12 13:25:39;;;;;;;1.27;1.15;;;29.80;50.10;;;;;;6200314;28;20078;-75
2021/07/12 13:28:41;;;;;;;3.05;1.25;;;29.90;49.70;;;;;;6199801;28;20161;-75
2021/07/12 13:31:43;;;;;;;3.03;1.38;;;30.00;48.20;;;;;;6200116;28;20057;-75
2021/07/12 13:34:57;;;;;;;5.72;1.50;;;30.30;48.90;;;;;;6212993;28;20124;-83
2021/07/12 13:38:01;;;;;;;2.55;1.58;;;30.90;51.40;;;;;;6221224;28;20563;-77
2021/07/12 13:41:04;;;;;;;2.33;1.20;;;30.20;49.80;;;;;;6200177;28;20066;-77
2021/07/12 13:44:07;;;;;;;3.95;1.23;;;29.60;53.30;;;;;;6201008;28;20053;-75
2021/07/12 13:47:10;;;;;;;2.22;1.20;;;30.30;49.90;;;;;;6211002;28;20095;-74
2021/07/12 13:50:16;;;;;;;2.20;1.00;;;30.60;50.20;;;;;;6183261;28;20098;-75
2021/07/12 13:53:18;;;;;;;2.47;1.20;;;30.70;51.30;;;;;;6175822;28;20094;-75
2021/07/12 13:56:20;;;;;;;1.65;1.50;;;30.70;49.60;;;;;;6175025;28;20361;-74
2021/07/12 13:59:22;;;;;;;1.20;1.10;;;30.90;49.60;;;;;;6175592;28;20189;-75
2021/07/12 14:02:24;;;;;;;1.13;1.00;;;31.00;48.60;;;;;;6174950;28;20112;-75
2021/07/12 14:05:29;;;;;;;1.58;1.48;;;30.90;48.40;;;;;;6183371;28;20129;-74
2021/07/12 14:08:32;;;;;;;1.50;1.00;;;30.90;49.00;;;;;;6198949;28;20572;-74
2021/07/12 14:11:35;;;;;;;2.00;1.48;;;30.90;49.20;;;;;;6198977;28;20457;-75
2021/07/12 14:14:37;;;;;;;4.72;1.15;;;31.00;48.80;;;;;;6198702;28;20445;-75
2021/07/12 14:17:39;;;;;;;1.40;1.30;;;31.20;47.80;;;;;;6199631;28;20178;-75
2021/07/12 14:20:43;;;;;;;1.30;1.20;;;31.30;48.50;;;;;;6199138;28;20050;-75
2021/07/12 14:23:45;;;;;;;1.65;1.55;;;31.30;47.60;;;;;;6198578;28;20393;-74
2021/07/12 14:26:49;;;;;;;2.13;1.50;;;31.20;47.00;;;;;;6198640;28;20555;-75
2021/07/12 14:29:50;;;;;;;1.92;1.27;;;31.10;48.30;;;;;;6199058;28;20050;-75
2021/07/12 14:32:52;;;;;;;3.03;1.40;;;31.20;49.10;;;;;;6198329;28;20053;-75
2021/07/12 14:35:55;;;;;;;5.47;1.73;;;31.20;48.50;;;;;;6198048;28;20125;-75
2021/07/12 14:38:57;;;;;;;3.70;1.20;;;31.20;48.30;;;;;;6198461;28;20093;-75
2021/07/12 14:42:00;;;;;;;3.38;1.30;;;31.20;48.20;;;;;;6198414;28;20058;-75
2021/07/12 14:45:03;;;;;;;1.45;0.93;;;31.00;49.00;;;;;;6198736;28;20098;-74
2021/07/12 14:48:05;;;;;;;1.85;1.38;;;30.70;49.20;;;;;;6197893;28;20046;-75
2021/07/12 14:51:09;;;;;;;8.88;1.40;;;30.40;49.70;;;;;;6169191;28;20051;-74
2021/07/12 14:54:11;;;;;;;2.40;1.30;;;30.10;51.10;;;;;;6173229;28;20054;-74
2021/07/12 14:57:13;;;;;;;4.82;1.65;;;29.40;54.60;;;;;;6174281;28;20094;-77
2021/07/12 15:00:15;;;;;;;4.95;1.70;;;28.90;57.60;;;;;;6191864;28;20449;-76
2021/07/12 15:03:18;;;;;;;3.50;1.48;;;28.80;57.70;;;;;;6197616;28;20567;-76
2021/07/12 15:06:21;;;;;;;3.25;1.45;;;28.70;57.80;;;;;;6194971;28;20042;-76
2021/07/12 15:09:23;;;;;;;1.77;1.48;;;28.80;57.80;;;;;;6174294;28;20100;-76
2021/07/12 15:12:25;;;;;;;1.63;1.13;;;28.80;56.70;;;;;;6193720;28;20043;-77
2021/07/12 15:15:27;;;;;;;2.95;1.52;;;28.80;56.80;;;;;;6219413;28;20528;-76
2021/07/12 15:18:29;;;;;;;1.63;1.20;;;29.00;56.60;;;;;;6197081;28;20077;-76
2021/07/12 15:21:34;;;;;;;3.38;1.45;;;29.10;56.00;;;;;;6198244;28;20058;-77
2021/07/12 15:24:35;;;;;;;1.48;1.33;;;29.20;55.20;;;;;;6199044;28;20121;-78
2021/07/12 15:27:37;;;;;;;1.42;1.02;;;29.30;54.70;;;;;;6198380;28;20113;-77
2021/07/12 15:30:39;;;;;;;2.28;1.60;;;29.30;54.10;;;;;;6197391;28;20520;-77
2021/07/12 15:33:41;;;;;;;2.78;1.05;;;29.30;54.70;;;;;;6197636;28;20133;-77
2021/07/12 15:36:44;;;;;;;2.33;1.50;;;29.20;53.90;;;;;;6197462;28;20511;-77
2021/07/12 15:39:46;;;;;;;3.65;1.27;;;29.10;54.50;;;;;;6197524;28;20046;-76
2021/07/12 15:42:48;;;;;;;3.83;1.65;;;28.90;54.80;;;;;;6198819;28;20411;-76
2021/07/12 15:45:51;;;;;;;2.95;1.20;;;28.80;56.20;;;;;;6197401;28;20137;-76
2021/07/12 15:48:53;;;;;;;1.85;1.30;;;28.80;56.90;;;;;;6196953;28;20053;-76
2021/07/12 15:51:56;;;;;;;3.78;2.10;;;28.70;59.00;;;;;;6195955;28;20050;-77
2021/07/12 15:54:58;;;;;;;3.58;2.05;;;28.50;61.00;;;;;;6196895;28;20189;-77
2021/07/12 15:58:00;;;;;;;2.22;1.95;;;28.50;62.20;;;;;;6198454;28;20054;-78
2021/07/12 16:01:02;;;;;;;2.50;1.70;;;28.50;60.80;;;;;;6201583;28;20141;-77
2021/07/12 16:04:05;;;;;;;2.80;1.60;;;28.50;59.80;;;;;;6202410;28;20066;-77
2021/07/12 16:07:09;;;;;;;1.50;1.20;;;28.40;58.60;;;;;;6201864;28;20129;-76
2021/07/12 16:10:12;;;;;;;3.22;1.40;;;28.40;58.80;;;;;;6200806;28;20137;-75